sensor_id;sensor_type;location;lat;lon;timestamp;temperature;humidity
6536;DHT22;34330;52.08032700;5.40923460;2023-09-08T00:01:58;23.40;73.20
6536;DHT22;34330;52.08032700;5.40923460;2023-09-08T00:04:27;24.10;73.80
6536;DHT22;34330;52.08032700;5.40923460;2023-09-08T00:06:56;23.30;73.40
6536;DHT22;34330;52.08032700;5.40923460;2023-09-08T00:09:24;23.30;73.20
6536;DHT22;34330;52.08032700;5.40923460;2023-09-08T00:11:52;23.30;74.20
6536;DHT22;34330;52.08032700;5.40923460;2023-09-08T00:14:21;23.30;73.80
6536;DHT22;34330;52.08032700;5.40923460;2023-09-08T00:16:48;23.30;73.90
6536;DHT22;34330;52.08032700;5.40923460;2023-09-08T00:19:18;23.20;73.90
6536;DHT22;34330;52.08032700;5.40923460;2023-09-08T00:21:47;23.20;73.90
6536;DHT22;34330;52.08032700;5.40923460;2023-09-08T00:24:16;23.20;74.30
6536;DHT22;34330;52.08032700;5.40923460;2023-09-08T00:26:44;23.10;74.00
6536;DHT22;34330;52.08032700;5.40923460;2023-09-08T00:29:12;23.10;74.00
6536;DHT22;34330;52.08032700;5.40923460;2023-09-08T00:31:41;23.10;73.80
6536;DHT22;34330;52.08032700;5.40923460;2023-09-08T00:34:09;23.10;73.90
6536;DHT22;34330;52.08032700;5.40923460;2023-09-08T00:36:37;23.00;74.50
6536;DHT22;34330;52.08032700;5.40923460;2023-09-08T00:39:06;23.00;73.80
6536;DHT22;34330;52.08032700;5.40923460;2023-09-08T00:41:34;23.00;73.80
6536;DHT22;34330;52.08032700;5.40923460;2023-09-08T00:44:02;22.90;73.60
6536;DHT22;34330;52.08032700;5.40923460;2023-09-08T00:46:31;22.90;73.70
6536;DHT22;34330;52.08032700;5.40923460;2023-09-08T00:48:59;22.90;73.70
6536;DHT22;34330;52.08032700;5.40923460;2023-09-08T00:51:28;22.80;73.60
6536;DHT22;34330;52.08032700;5.40923460;2023-09-08T00:53:56;22.80;73.40
6536;DHT22;34330;52.08032700;5.40923460;2023-09-08T00:56:26;22.80;73.40
6536;DHT22;34330;52.08032700;5.40923460;2023-09-08T00:58:54;22.70;73.60
6536;DHT22;34330;52.08032700;5.40923460;2023-09-08T01:01:22;22.60;73.90
6536;DHT22;34330;52.08032700;5.40923460;2023-09-08T01:03:50;22.60;73.90
6536;DHT22;34330;52.08032700;5.40923460;2023-09-08T01:06:18;22.60;74.00
6536;DHT22;34330;52.08032700;5.40923460;2023-09-08T01:08:47;22.50;74.00
6536;DHT22;34330;52.08032700;5.40923460;2023-09-08T01:11:17;22.50;74.20
6536;DHT22;34330;52.08032700;5.40923460;2023-09-08T01:13:47;22.50;74.20
6536;DHT22;34330;52.08032700;5.40923460;2023-09-08T01:16:15;22.40;74.30
6536;DHT22;34330;52.08032700;5.40923460;2023-09-08T01:18:44;22.40;74.20
6536;DHT22;34330;52.08032700;5.40923460;2023-09-08T01:21:56;22.40;74.40
6536;DHT22;34330;52.08032700;5.40923460;2023-09-08T01:27:21;22.30;75.00
6536;DHT22;34330;52.08032700;5.40923460;2023-09-08T01:29:52;22.30;74.70
6536;DHT22;34330;52.08032700;5.40923460;2023-09-08T01:32:20;22.30;74.60
6536;DHT22;34330;52.08032700;5.40923460;2023-09-08T01:34:49;22.20;74.60
6536;DHT22;34330;52.08032700;5.40923460;2023-09-08T01:37:17;22.20;74.70
6536;DHT22;34330;52.08032700;5.40923460;2023-09-08T01:39:44;22.20;74.80
6536;DHT22;34330;52.08032700;5.40923460;2023-09-08T01:42:12;22.10;75.00
6536;DHT22;34330;52.08032700;5.40923460;2023-09-08T01:44:42;22.10;75.00
6536;DHT22;34330;52.08032700;5.40923460;2023-09-08T01:47:09;22.10;75.30
6536;DHT22;34330;52.08032700;5.40923460;2023-09-08T01:49:37;22.00;75.10
6536;DHT22;34330;52.08032700;5.40923460;2023-09-08T01:52:05;22.00;75.20
6536;DHT22;34330;52.08032700;5.40923460;2023-09-08T01:54:34;22.00;75.30
6536;DHT22;34330;52.08032700;5.40923460;2023-09-08T01:57:02;21.90;75.30
6536;DHT22;34330;52.08032700;5.40923460;2023-09-08T01:59:30;21.90;75.40
6536;DHT22;34330;52.08032700;5.40923460;2023-09-08T02:01:59;21.90;76.20
6536;DHT22;34330;52.08032700;5.40923460;2023-09-08T02:04:27;21.90;75.70
6536;DHT22;34330;52.08032700;5.40923460;2023-09-08T02:06:55;21.90;75.50
6536;DHT22;34330;52.08032700;5.40923460;2023-09-08T02:09:31;21.80;75.40
6536;DHT22;34330;52.08032700;5.40923460;2023-09-08T02:11:59;21.80;76.00
6536;DHT22;34330;52.08032700;5.40923460;2023-09-08T02:14:27;21.80;75.60
6536;DHT22;34330;52.08032700;5.40923460;2023-09-08T02:16:55;21.80;75.60
6536;DHT22;34330;52.08032700;5.40923460;2023-09-08T02:19:25;21.70;75.90
6536;DHT22;34330;52.08032700;5.40923460;2023-09-08T02:21:56;21.70;76.10
6536;DHT22;34330;52.08032700;5.40923460;2023-09-08T02:24:24;21.70;75.80
6536;DHT22;34330;52.08032700;5.40923460;2023-09-08T02:26:53;21.70;76.00
6536;DHT22;34330;52.08032700;5.40923460;2023-09-08T02:29:21;21.70;76.30
6536;DHT22;34330;52.08032700;5.40923460;2023-09-08T02:31:49;21.60;76.10
6536;DHT22;34330;52.08032700;5.40923460;2023-09-08T02:34:17;21.70;76.30
6536;DHT22;34330;52.08032700;5.40923460;2023-09-08T02:36:46;21.60;76.40
6536;DHT22;34330;52.08032700;5.40923460;2023-09-08T02:39:17;21.60;76.60
6536;DHT22;34330;52.08032700;5.40923460;2023-09-08T02:41:46;21.60;76.50
6536;DHT22;34330;52.08032700;5.40923460;2023-09-08T02:44:13;21.50;76.40
6536;DHT22;34330;52.08032700;5.40923460;2023-09-08T02:46:41;21.50;76.60
6536;DHT22;34330;52.08032700;5.40923460;2023-09-08T02:49:10;21.50;76.70
6536;DHT22;34330;52.08032700;5.40923460;2023-09-08T02:51:38;21.50;76.80
6536;DHT22;34330;52.08032700;5.40923460;2023-09-08T02:54:10;21.50;76.90
6536;DHT22;34330;52.08032700;5.40923460;2023-09-08T02:56:38;21.40;77.20
6536;DHT22;34330;52.08032700;5.40923460;2023-09-08T02:59:06;21.40;76.90
6536;DHT22;34330;52.08032700;5.40923460;2023-09-08T03:01:34;21.40;77.00
6536;DHT22;34330;52.08032700;5.40923460;2023-09-08T03:04:03;21.40;77.00
6536;DHT22;34330;52.08032700;5.40923460;2023-09-08T03:06:31;21.30;77.00
6536;DHT22;34330;52.08032700;5.40923460;2023-09-08T03:08:59;21.30;77.00
6536;DHT22;34330;52.08032700;5.40923460;2023-09-08T03:11:28;21.30;76.90
6536;DHT22;34330;52.08032700;5.40923460;2023-09-08T03:13:56;21.30;77.10
6536;DHT22;34330;52.08032700;5.40923460;2023-09-08T03:16:24;21.20;77.00
6536;DHT22;34330;52.08032700;5.40923460;2023-09-08T03:18:55;21.20;77.80
6536;DHT22;34330;52.08032700;5.40923460;2023-09-08T03:21:23;21.20;77.10
6536;DHT22;34330;52.08032700;5.40923460;2023-09-08T03:23:51;21.20;77.30
6536;DHT22;34330;52.08032700;5.40923460;2023-09-08T03:26:19;21.10;77.20
6536;DHT22;34330;52.08032700;5.40923460;2023-09-08T03:28:48;21.00;78.80
6536;DHT22;34330;52.08032700;5.40923460;2023-09-08T03:31:16;21.00;79.00
6536;DHT22;34330;52.08032700;5.40923460;2023-09-08T03:33:44;21.00;78.40
6536;DHT22;34330;52.08032700;5.40923460;2023-09-08T03:36:13;21.00;78.30
6536;DHT22;34330;52.08032700;5.40923460;2023-09-08T03:38:41;21.00;78.20
6536;DHT22;34330;52.08032700;5.40923460;2023-09-08T03:41:09;21.10;78.00
6536;DHT22;34330;52.08032700;5.40923460;2023-09-08T03:43:37;21.00;77.90
6536;DHT22;34330;52.08032700;5.40923460;2023-09-08T03:46:07;21.10;77.90
6536;DHT22;34330;52.08032700;5.40923460;2023-09-08T03:48:35;22.20;79.00
6536;DHT22;34330;52.08032700;5.40923460;2023-09-08T03:51:03;21.00;77.70
6536;DHT22;34330;52.08032700;5.40923460;2023-09-08T03:53:31;21.00;77.60
6536;DHT22;34330;52.08032700;5.40923460;2023-09-08T03:56:00;21.00;77.80
6536;DHT22;34330;52.08032700;5.40923460;2023-09-08T03:58:28;20.90;77.70
6536;DHT22;34330;52.08032700;5.40923460;2023-09-08T04:00:56;20.90;77.70
6536;DHT22;34330;52.08032700;5.40923460;2023-09-08T04:03:26;20.90;77.50
6536;DHT22;34330;52.08032700;5.40923460;2023-09-08T04:05:55;20.90;77.80
6536;DHT22;34330;52.08032700;5.40923460;2023-09-08T04:08:25;20.90;78.00
6536;DHT22;34330;52.08032700;5.40923460;2023-09-08T04:10:53;20.90;77.90
6536;DHT22;34330;52.08032700;5.40923460;2023-09-08T04:13:21;20.80;77.90
6536;DHT22;34330;52.08032700;5.40923460;2023-09-08T04:15:50;20.80;77.90
6536;DHT22;34330;52.08032700;5.40923460;2023-09-08T04:18:18;20.90;77.90
6536;DHT22;34330;52.08032700;5.40923460;2023-09-08T04:20:47;20.80;77.90
6536;DHT22;34330;52.08032700;5.40923460;2023-09-08T04:23:19;20.80;78.00
6536;DHT22;34330;52.08032700;5.40923460;2023-09-08T04:25:46;20.80;78.20
6536;DHT22;34330;52.08032700;5.40923460;2023-09-08T04:28:15;20.80;78.10
6536;DHT22;34330;52.08032700;5.40923460;2023-09-08T04:30:43;20.70;78.10
6536;DHT22;34330;52.08032700;5.40923460;2023-09-08T04:33:11;20.70;78.00
6536;DHT22;34330;52.08032700;5.40923460;2023-09-08T04:35:39;20.70;78.20
6536;DHT22;34330;52.08032700;5.40923460;2023-09-08T04:38:08;20.60;78.30
6536;DHT22;34330;52.08032700;5.40923460;2023-09-08T04:40:36;20.60;78.70
6536;DHT22;34330;52.08032700;5.40923460;2023-09-08T04:43:07;20.60;78.70
6536;DHT22;34330;52.08032700;5.40923460;2023-09-08T04:45:36;20.50;78.40
6536;DHT22;34330;52.08032700;5.40923460;2023-09-08T04:48:05;20.50;78.60
6536;DHT22;34330;52.08032700;5.40923460;2023-09-08T04:50:33;20.50;78.70
6536;DHT22;34330;52.08032700;5.40923460;2023-09-08T04:53:01;20.50;78.70
6536;DHT22;34330;52.08032700;5.40923460;2023-09-08T04:55:30;20.40;78.60
6536;DHT22;34330;52.08032700;5.40923460;2023-09-08T04:57:58;20.50;78.90
6536;DHT22;34330;52.08032700;5.40923460;2023-09-08T05:00:26;20.40;78.80
6536;DHT22;34330;52.08032700;5.40923460;2023-09-08T05:02:54;20.40;78.60
6536;DHT22;34330;52.08032700;5.40923460;2023-09-08T05:05:22;20.50;79.00
6536;DHT22;34330;52.08032700;5.40923460;2023-09-08T05:07:50;20.40;79.00
6536;DHT22;34330;52.08032700;5.40923460;2023-09-08T05:10:22;20.40;79.10
6536;DHT22;34330;52.08032700;5.40923460;2023-09-08T05:12:52;20.40;79.10
6536;DHT22;34330;52.08032700;5.40923460;2023-09-08T05:15:20;20.30;79.20
6536;DHT22;34330;52.08032700;5.40923460;2023-09-08T05:17:48;20.30;79.10
6536;DHT22;34330;52.08032700;5.40923460;2023-09-08T05:20:16;20.30;79.20
6536;DHT22;34330;52.08032700;5.40923460;2023-09-08T05:22:44;20.30;79.30
6536;DHT22;34330;52.08032700;5.40923460;2023-09-08T05:25:12;20.30;79.40
6536;DHT22;34330;52.08032700;5.40923460;2023-09-08T05:27:41;20.30;79.50
6536;DHT22;34330;52.08032700;5.40923460;2023-09-08T05:30:12;20.30;79.50
6536;DHT22;34330;52.08032700;5.40923460;2023-09-08T05:32:40;20.30;79.80
6536;DHT22;34330;52.08032700;5.40923460;2023-09-08T05:35:08;20.30;79.70
6536;DHT22;34330;52.08032700;5.40923460;2023-09-08T05:37:36;20.30;79.80
6536;DHT22;34330;52.08032700;5.40923460;2023-09-08T05:40:06;20.30;80.00
6536;DHT22;34330;52.08032700;5.40923460;2023-09-08T05:42:34;20.30;80.30
6536;DHT22;34330;52.08032700;5.40923460;2023-09-08T05:45:02;20.30;80.10
6536;DHT22;34330;52.08032700;5.40923460;2023-09-08T05:47:32;20.30;80.40
6536;DHT22;34330;52.08032700;5.40923460;2023-09-08T05:50:00;20.30;80.50
6536;DHT22;34330;52.08032700;5.40923460;2023-09-08T05:52:28;20.30;80.50
6536;DHT22;34330;52.08032700;5.40923460;2023-09-08T05:54:56;20.30;80.40
6536;DHT22;34330;52.08032700;5.40923460;2023-09-08T05:57:29;20.40;80.80
6536;DHT22;34330;52.08032700;5.40923460;2023-09-08T05:59:57;20.40;80.90
6536;DHT22;34330;52.08032700;5.40923460;2023-09-08T06:02:26;20.40;80.50
6536;DHT22;34330;52.08032700;5.40923460;2023-09-08T06:04:55;20.40;81.00
6536;DHT22;34330;52.08032700;5.40923460;2023-09-08T06:07:24;20.40;81.30
6536;DHT22;34330;52.08032700;5.40923460;2023-09-08T06:09:52;20.40;81.20
6536;DHT22;34330;52.08032700;5.40923460;2023-09-08T06:12:20;20.50;81.40
6536;DHT22;34330;52.08032700;5.40923460;2023-09-08T06:14:48;20.50;81.40
6536;DHT22;34330;52.08032700;5.40923460;2023-09-08T06:17:16;20.50;81.60
6536;DHT22;34330;52.08032700;5.40923460;2023-09-08T06:19:44;20.50;81.60
6536;DHT22;34330;52.08032700;5.40923460;2023-09-08T06:22:13;20.60;81.70
6536;DHT22;34330;52.08032700;5.40923460;2023-09-08T06:24:41;20.60;81.90
6536;DHT22;34330;52.08032700;5.40923460;2023-09-08T06:27:09;20.60;82.60
6536;DHT22;34330;52.08032700;5.40923460;2023-09-08T06:29:38;20.70;82.00
6536;DHT22;34330;52.08032700;5.40923460;2023-09-08T06:32:06;20.70;82.10
6536;DHT22;34330;52.08032700;5.40923460;2023-09-08T06:34:35;20.80;82.50
6536;DHT22;34330;52.08032700;5.40923460;2023-09-08T06:37:03;20.80;82.80
6536;DHT22;34330;52.08032700;5.40923460;2023-09-08T06:39:32;20.90;83.30
6536;DHT22;34330;52.08032700;5.40923460;2023-09-08T06:42:00;21.00;84.20
6536;DHT22;34330;52.08032700;5.40923460;2023-09-08T06:44:28;21.00;84.20
6536;DHT22;34330;52.08032700;5.40923460;2023-09-08T06:46:56;21.10;84.70
6536;DHT22;34330;52.08032700;5.40923460;2023-09-08T06:49:24;21.20;85.30
6536;DHT22;34330;52.08032700;5.40923460;2023-09-08T06:51:53;21.20;85.00
6536;DHT22;34330;52.08032700;5.40923460;2023-09-08T06:54:21;21.30;85.20
6536;DHT22;34330;52.08032700;5.40923460;2023-09-08T06:56:50;21.40;85.20
6536;DHT22;34330;52.08032700;5.40923460;2023-09-08T06:59:18;21.50;85.10
6536;DHT22;34330;52.08032700;5.40923460;2023-09-08T07:01:46;21.60;85.00
6536;DHT22;34330;52.08032700;5.40923460;2023-09-08T07:04:14;21.70;85.00
6536;DHT22;34330;52.08032700;5.40923460;2023-09-08T07:06:42;21.80;85.20
6536;DHT22;34330;52.08032700;5.40923460;2023-09-08T07:09:11;21.90;85.00
6536;DHT22;34330;52.08032700;5.40923460;2023-09-08T07:11:39;22.00;85.10
6536;DHT22;34330;52.08032700;5.40923460;2023-09-08T07:14:09;22.10;85.20
6536;DHT22;34330;52.08032700;5.40923460;2023-09-08T07:16:37;22.20;85.30
6536;DHT22;34330;52.08032700;5.40923460;2023-09-08T07:19:05;22.30;85.10
6536;DHT22;34330;52.08032700;5.40923460;2023-09-08T07:21:33;22.40;85.30
6536;DHT22;34330;52.08032700;5.40923460;2023-09-08T07:24:01;22.50;85.40
6536;DHT22;34330;52.08032700;5.40923460;2023-09-08T07:26:29;22.70;85.50
6536;DHT22;34330;52.08032700;5.40923460;2023-09-08T07:28:57;22.80;85.50
6536;DHT22;34330;52.08032700;5.40923460;2023-09-08T07:31:27;22.90;85.20
6536;DHT22;34330;52.08032700;5.40923460;2023-09-08T07:33:55;23.00;85.50
6536;DHT22;34330;52.08032700;5.40923460;2023-09-08T07:36:24;23.10;85.40
6536;DHT22;34330;52.08032700;5.40923460;2023-09-08T07:38:52;23.30;85.40
6536;DHT22;34330;52.08032700;5.40923460;2023-09-08T07:41:20;23.40;85.40
6536;DHT22;34330;52.08032700;5.40923460;2023-09-08T07:43:48;23.50;85.50
6536;DHT22;34330;52.08032700;5.40923460;2023-09-08T07:46:17;23.60;85.40
6536;DHT22;34330;52.08032700;5.40923460;2023-09-08T07:48:47;23.70;85.20
6536;DHT22;34330;52.08032700;5.40923460;2023-09-08T07:51:15;23.90;84.70
6536;DHT22;34330;52.08032700;5.40923460;2023-09-08T07:53:43;24.00;84.70
6536;DHT22;34330;52.08032700;5.40923460;2023-09-08T07:56:11;24.10;84.00
6536;DHT22;34330;52.08032700;5.40923460;2023-09-08T07:58:39;24.20;83.90
6536;DHT22;34330;52.08032700;5.40923460;2023-09-08T08:01:07;24.30;84.20
6536;DHT22;34330;52.08032700;5.40923460;2023-09-08T08:03:34;24.40;84.10
6536;DHT22;34330;52.08032700;5.40923460;2023-09-08T08:06:04;24.60;84.20
6536;DHT22;34330;52.08032700;5.40923460;2023-09-08T08:08:32;24.70;84.00
6536;DHT22;34330;52.08032700;5.40923460;2023-09-08T08:11:09;24.80;84.00
6536;DHT22;34330;52.08032700;5.40923460;2023-09-08T08:13:37;24.90;83.20
6536;DHT22;34330;52.08032700;5.40923460;2023-09-08T08:16:05;25.00;82.90
6536;DHT22;34330;52.08032700;5.40923460;2023-09-08T08:18:34;25.10;82.30
6536;DHT22;34330;52.08032700;5.40923460;2023-09-08T08:21:04;25.20;81.90
6536;DHT22;34330;52.08032700;5.40923460;2023-09-08T08:23:32;25.40;82.10
6536;DHT22;34330;52.08032700;5.40923460;2023-09-08T08:26:01;25.40;82.00
6536;DHT22;34330;52.08032700;5.40923460;2023-09-08T08:28:29;25.50;81.40
6536;DHT22;34330;52.08032700;5.40923460;2023-09-08T08:30:57;25.60;82.10
6536;DHT22;34330;52.08032700;5.40923460;2023-09-08T08:33:26;25.70;81.40
6536;DHT22;34330;52.08032700;5.40923460;2023-09-08T08:35:58;25.80;82.00
6536;DHT22;34330;52.08032700;5.40923460;2023-09-08T08:38:27;26.00;80.60
6536;DHT22;34330;52.08032700;5.40923460;2023-09-08T08:41:02;26.10;80.30
6536;DHT22;34330;52.08032700;5.40923460;2023-09-08T08:43:31;26.20;80.30
6536;DHT22;34330;52.08032700;5.40923460;2023-09-08T08:46:00;26.30;80.60
6536;DHT22;34330;52.08032700;5.40923460;2023-09-08T08:48:29;26.40;80.40
6536;DHT22;34330;52.08032700;5.40923460;2023-09-08T08:50:58;26.40;79.90
6536;DHT22;34330;52.08032700;5.40923460;2023-09-08T08:53:29;26.60;80.00
6536;DHT22;34330;52.08032700;5.40923460;2023-09-08T08:55:59;26.70;79.40
6536;DHT22;34330;52.08032700;5.40923460;2023-09-08T08:58:28;26.70;79.00
6536;DHT22;34330;52.08032700;5.40923460;2023-09-08T09:00:57;27.00;79.00
6536;DHT22;34330;52.08032700;5.40923460;2023-09-08T09:03:27;24.80;77.20
6536;DHT22;34330;52.08032700;5.40923460;2023-09-08T09:05:56;27.00;79.20
6536;DHT22;34330;52.08032700;5.40923460;2023-09-08T09:08:28;27.10;78.50
6536;DHT22;34330;52.08032700;5.40923460;2023-09-08T09:10:57;27.20;78.50
6536;DHT22;34330;52.08032700;5.40923460;2023-09-08T09:13:25;27.30;78.30
6536;DHT22;34330;52.08032700;5.40923460;2023-09-08T09:15:58;27.40;77.90
6536;DHT22;34330;52.08032700;5.40923460;2023-09-08T09:18:26;27.50;77.70
6536;DHT22;34330;52.08032700;5.40923460;2023-09-08T09:20:59;27.60;77.30
6536;DHT22;34330;52.08032700;5.40923460;2023-09-08T09:23:29;27.60;77.20
6536;DHT22;34330;52.08032700;5.40923460;2023-09-08T09:25:59;27.90;76.80
6536;DHT22;34330;52.08032700;5.40923460;2023-09-08T09:28:28;27.80;76.70
6536;DHT22;34330;52.08032700;5.40923460;2023-09-08T09:30:59;27.90;75.90
6536;DHT22;34330;52.08032700;5.40923460;2023-09-08T09:33:28;28.00;76.00
6536;DHT22;34330;52.08032700;5.40923460;2023-09-08T09:35:57;28.10;76.40
6536;DHT22;34330;52.08032700;5.40923460;2023-09-08T09:38:27;28.20;76.30
6536;DHT22;34330;52.08032700;5.40923460;2023-09-08T09:40:56;28.30;75.10
6536;DHT22;34330;52.08032700;5.40923460;2023-09-08T09:43:28;28.30;74.90
6536;DHT22;34330;52.08032700;5.40923460;2023-09-08T09:45:56;28.40;75.70
6536;DHT22;34330;52.08032700;5.40923460;2023-09-08T09:48:24;28.50;74.80
6536;DHT22;34330;52.08032700;5.40923460;2023-09-08T09:50:53;28.60;74.10
6536;DHT22;34330;52.08032700;5.40923460;2023-09-08T09:53:21;28.70;73.80
6536;DHT22;34330;52.08032700;5.40923460;2023-09-08T09:55:50;28.90;73.40
6536;DHT22;34330;52.08032700;5.40923460;2023-09-08T09:58:20;28.80;73.30
6536;DHT22;34330;52.08032700;5.40923460;2023-09-08T10:00:50;28.90;73.00
6536;DHT22;34330;52.08032700;5.40923460;2023-09-08T10:03:19;29.00;72.90
6536;DHT22;34330;52.08032700;5.40923460;2023-09-08T10:05:47;29.10;73.10
6536;DHT22;34330;52.08032700;5.40923460;2023-09-08T10:08:16;29.10;73.00
6536;DHT22;34330;52.08032700;5.40923460;2023-09-08T10:10:45;29.20;72.40
6536;DHT22;34330;52.08032700;5.40923460;2023-09-08T10:13:21;29.30;72.60
6536;DHT22;34330;52.08032700;5.40923460;2023-09-08T10:15:52;29.40;72.30
6536;DHT22;34330;52.08032700;5.40923460;2023-09-08T10:18:22;29.40;72.50
6536;DHT22;34330;52.08032700;5.40923460;2023-09-08T10:20:51;29.60;72.10
6536;DHT22;34330;52.08032700;5.40923460;2023-09-08T10:23:23;29.60;71.50
6536;DHT22;34330;52.08032700;5.40923460;2023-09-08T10:26:03;29.70;71.20
6536;DHT22;34330;52.08032700;5.40923460;2023-09-08T10:28:36;29.80;70.90
6536;DHT22;34330;52.08032700;5.40923460;2023-09-08T10:31:05;29.80;71.20
6536;DHT22;34330;52.08032700;5.40923460;2023-09-08T10:33:34;29.90;71.40
6536;DHT22;34330;52.08032700;5.40923460;2023-09-08T10:36:04;30.00;71.40
6536;DHT22;34330;52.08032700;5.40923460;2023-09-08T10:38:33;30.10;71.80
6536;DHT22;34330;52.08032700;5.40923460;2023-09-08T10:41:29;30.20;71.10
6536;DHT22;34330;52.08032700;5.40923460;2023-09-08T10:44:06;30.20;69.80
6536;DHT22;34330;52.08032700;5.40923460;2023-09-08T10:46:37;30.30;70.20
6536;DHT22;34330;52.08032700;5.40923460;2023-09-08T10:49:06;30.40;70.40
6536;DHT22;34330;52.08032700;5.40923460;2023-09-08T10:51:35;30.50;69.70
6536;DHT22;34330;52.08032700;5.40923460;2023-09-08T10:54:05;30.60;70.00
6536;DHT22;34330;52.08032700;5.40923460;2023-09-08T10:56:48;30.60;70.10
6536;DHT22;34330;52.08032700;5.40923460;2023-09-08T10:59:28;30.70;70.20
6536;DHT22;34330;52.08032700;5.40923460;2023-09-08T11:01:56;30.80;69.40
6536;DHT22;34330;52.08032700;5.40923460;2023-09-08T11:04:25;30.90;69.30
6536;DHT22;34330;52.08032700;5.40923460;2023-09-08T11:06:56;30.90;69.10
6536;DHT22;34330;52.08032700;5.40923460;2023-09-08T11:09:25;31.00;68.60
6536;DHT22;34330;52.08032700;5.40923460;2023-09-08T11:11:53;31.10;69.20
6536;DHT22;34330;52.08032700;5.40923460;2023-09-08T11:14:22;31.20;69.60
6536;DHT22;34330;52.08032700;5.40923460;2023-09-08T11:16:50;31.30;69.10
6536;DHT22;34330;52.08032700;5.40923460;2023-09-08T11:19:18;31.30;68.60
6536;DHT22;34330;52.08032700;5.40923460;2023-09-08T11:21:47;31.40;68.10
6536;DHT22;34330;52.08032700;5.40923460;2023-09-08T11:24:16;31.50;68.30
6536;DHT22;34330;52.08032700;5.40923460;2023-09-08T11:26:45;31.60;67.50
6536;DHT22;34330;52.08032700;5.40923460;2023-09-08T11:29:17;31.60;67.10
6536;DHT22;34330;52.08032700;5.40923460;2023-09-08T11:31:51;31.70;67.30
6536;DHT22;34330;52.08032700;5.40923460;2023-09-08T11:34:20;31.80;66.00
6536;DHT22;34330;52.08032700;5.40923460;2023-09-08T11:36:48;31.80;66.10
6536;DHT22;34330;52.08032700;5.40923460;2023-09-08T11:39:16;31.90;66.00
6536;DHT22;34330;52.08032700;5.40923460;2023-09-08T11:41:44;32.00;66.00
6536;DHT22;34330;52.08032700;5.40923460;2023-09-08T11:44:15;32.00;66.10
6536;DHT22;34330;52.08032700;5.40923460;2023-09-08T11:46:43;32.00;65.10
6536;DHT22;34330;52.08032700;5.40923460;2023-09-08T11:49:14;32.10;65.40
6536;DHT22;34330;52.08032700;5.40923460;2023-09-08T11:51:43;32.20;64.50
6536;DHT22;34330;52.08032700;5.40923460;2023-09-08T11:54:12;32.30;65.10
6536;DHT22;34330;52.08032700;5.40923460;2023-09-08T11:56:40;32.30;65.10
6536;DHT22;34330;52.08032700;5.40923460;2023-09-08T11:59:09;32.40;63.80
6536;DHT22;34330;52.08032700;5.40923460;2023-09-08T12:01:37;32.50;63.80
6536;DHT22;34330;52.08032700;5.40923460;2023-09-08T12:04:05;32.50;63.50
6536;DHT22;34330;52.08032700;5.40923460;2023-09-08T12:06:35;32.60;63.60
6536;DHT22;34330;52.08032700;5.40923460;2023-09-08T12:09:03;32.60;63.70
6536;DHT22;34330;52.08032700;5.40923460;2023-09-08T12:11:33;32.70;63.40
6536;DHT22;34330;52.08032700;5.40923460;2023-09-08T12:14:07;32.60;62.60
6536;DHT22;34330;52.08032700;5.40923460;2023-09-08T12:16:35;32.70;62.50
6536;DHT22;34330;52.08032700;5.40923460;2023-09-08T12:19:03;32.80;62.40
6536;DHT22;34330;52.08032700;5.40923460;2023-09-08T12:24:47;33.00;62.10
6536;DHT22;34330;52.08032700;5.40923460;2023-09-08T12:27:16;33.00;61.80
6536;DHT22;34330;52.08032700;5.40923460;2023-09-08T12:29:52;33.10;61.90
6536;DHT22;34330;52.08032700;5.40923460;2023-09-08T12:34:50;33.20;61.40
6536;DHT22;34330;52.08032700;5.40923460;2023-09-08T12:37:22;33.30;61.50
6536;DHT22;34330;52.08032700;5.40923460;2023-09-08T12:39:52;33.30;60.40
6536;DHT22;34330;52.08032700;5.40923460;2023-09-08T12:42:20;33.40;60.90
6536;DHT22;34330;52.08032700;5.40923460;2023-09-08T12:44:53;33.50;61.10
6536;DHT22;34330;52.08032700;5.40923460;2023-09-08T12:47:21;33.50;60.70
6536;DHT22;34330;52.08032700;5.40923460;2023-09-08T12:49:49;33.60;60.60
6536;DHT22;34330;52.08032700;5.40923460;2023-09-08T12:52:17;33.70;60.80
6536;DHT22;34330;52.08032700;5.40923460;2023-09-08T12:54:45;33.70;60.40
6536;DHT22;34330;52.08032700;5.40923460;2023-09-08T12:57:14;33.80;60.00
6536;DHT22;34330;52.08032700;5.40923460;2023-09-08T12:59:42;33.80;59.30
6536;DHT22;34330;52.08032700;5.40923460;2023-09-08T13:02:10;33.80;59.80
6536;DHT22;34330;52.08032700;5.40923460;2023-09-08T13:04:39;33.90;60.00
6536;DHT22;34330;52.08032700;5.40923460;2023-09-08T13:07:07;33.90;59.50
6536;DHT22;34330;52.08032700;5.40923460;2023-09-08T13:09:35;34.00;59.70
6536;DHT22;34330;52.08032700;5.40923460;2023-09-08T13:12:03;34.10;59.10
6536;DHT22;34330;52.08032700;5.40923460;2023-09-08T13:14:33;34.10;59.10
6536;DHT22;34330;52.08032700;5.40923460;2023-09-08T13:17:02;34.10;58.50
6536;DHT22;34330;52.08032700;5.40923460;2023-09-08T13:21:58;34.30;58.20
6536;DHT22;34330;52.08032700;5.40923460;2023-09-08T13:24:26;34.30;58.00
6536;DHT22;34330;52.08032700;5.40923460;2023-09-08T13:26:54;34.30;58.10
6536;DHT22;34330;52.08032700;5.40923460;2023-09-08T13:29:23;34.40;58.00
6536;DHT22;34330;52.08032700;5.40923460;2023-09-08T13:31:52;34.50;57.60
6536;DHT22;34330;52.08032700;5.40923460;2023-09-08T13:34:20;34.50;57.30
6536;DHT22;34330;52.08032700;5.40923460;2023-09-08T13:36:48;34.50;57.10
6536;DHT22;34330;52.08032700;5.40923460;2023-09-08T13:39:17;34.50;57.70
6536;DHT22;34330;52.08032700;5.40923460;2023-09-08T13:41:49;34.60;58.60
6536;DHT22;34330;52.08032700;5.40923460;2023-09-08T13:44:18;34.60;57.60
6536;DHT22;34330;52.08032700;5.40923460;2023-09-08T13:46:46;34.70;58.60
6536;DHT22;34330;52.08032700;5.40923460;2023-09-08T13:49:16;34.80;57.50
6536;DHT22;34330;52.08032700;5.40923460;2023-09-08T13:51:46;34.80;56.80
6536;DHT22;34330;52.08032700;5.40923460;2023-09-08T13:54:18;34.90;56.10
6536;DHT22;34330;52.08032700;5.40923460;2023-09-08T13:56:58;35.00;55.90